createdAt,value
2019-03-16T00:00:51.060Z,68.72
2019-03-16T00:03:17.777Z,69.04
2019-03-16T00:05:44.558Z,69.17
2019-03-16T00:08:11.366Z,68.71
2019-03-16T00:10:38.140Z,69.08
2019-03-16T00:13:04.944Z,69.07
2019-03-16T00:15:31.753Z,69.06
2019-03-16T00:17:58.540Z,69.40
2019-03-16T00:20:25.313Z,69.44
2019-03-16T00:22:52.022Z,69.53
2019-03-16T00:25:18.802Z,69.07
2019-03-16T00:27:45.606Z,69.66
2019-03-16T00:30:12.508Z,69.58
2019-03-16T00:32:39.845Z,69.41
2019-03-16T00:35:06.639Z,69.25
2019-03-16T00:37:34.055Z,69.26
2019-03-16T00:40:00.753Z,69.38
2019-03-16T00:42:27.521Z,69.73
2019-03-16T00:44:54.341Z,69.89
2019-03-16T00:47:22.476Z,69.44
2019-03-16T00:49:49.152Z,69.85
2019-03-16T00:52:16.271Z,69.41
2019-03-16T00:54:42.964Z,70.11
2019-03-16T00:57:09.634Z,69.93
2019-03-16T00:59:36.320Z,69.77
2019-03-16T01:02:03.311Z,69.73
2019-03-16T01:04:29.992Z,69.92
2019-03-16T01:06:56.873Z,69.71
2019-03-16T01:09:23.664Z,69.88
2019-03-16T01:11:50.344Z,70.17
2019-03-16T01:14:17.027Z,70.30
2019-03-16T01:16:43.726Z,69.78
2019-03-16T01:19:10.312Z,69.94
2019-03-16T01:21:37.016Z,69.89
2019-03-16T01:24:03.812Z,70.07
2019-03-16T01:26:30.598Z,70.08
2019-03-16T01:28:57.291Z,70.17
2019-03-16T01:31:23.981Z,69.89
2019-03-16T01:33:51.318Z,70.20
2019-03-16T01:36:17.919Z,69.56
2019-03-16T01:38:44.734Z,69.86
2019-03-16T01:41:11.398Z,69.83
2019-03-16T01:43:37.986Z,69.66
2019-03-16T01:46:04.779Z,69.75
2019-03-16T01:48:31.383Z,69.75
2019-03-16T01:50:58.081Z,69.85
2019-03-16T01:53:24.822Z,69.86
2019-03-16T01:55:51.515Z,69.87
2019-03-16T01:58:18.306Z,69.48
2019-03-16T02:00:45.304Z,69.21
2019-03-16T02:03:12.316Z,69.66
2019-03-16T02:05:39.106Z,70.06
2019-03-16T02:08:05.906Z,69.75
2019-03-16T02:10:32.493Z,69.97
2019-03-16T02:12:59.194Z,69.76
2019-03-16T02:15:25.888Z,69.23
2019-03-16T02:17:52.595Z,69.53
2019-03-16T02:20:19.279Z,69.22
2019-03-16T02:22:46.067Z,69.42
2019-03-16T02:25:13.194Z,68.56
2019-03-16T02:27:40.011Z,68.97
2019-03-16T02:30:07.503Z,68.88
2019-03-16T02:32:34.599Z,68.65
2019-03-16T02:35:01.309Z,67.70
2019-03-16T02:37:27.997Z,67.88
2019-03-16T02:39:54.629Z,67.98
2019-03-16T02:42:21.301Z,68.28
2019-03-16T02:44:47.890Z,67.44
2019-03-16T02:47:14.578Z,67.84
2019-03-16T02:49:41.273Z,67.77
2019-03-16T02:52:08.353Z,68.11
2019-03-16T02:54:35.167Z,68.12
2019-03-16T02:57:01.945Z,67.51
2019-03-16T02:59:28.930Z,68.05
2019-03-16T03:01:55.611Z,68.23
2019-03-16T03:04:22.653Z,67.99
2019-03-16T03:06:49.797Z,68.47
2019-03-16T03:09:16.611Z,68.13
2019-03-16T03:11:43.385Z,68.40
2019-03-16T03:14:10.188Z,68.41
2019-03-16T03:16:36.957Z,68.47
2019-03-16T03:19:03.778Z,68.62
2019-03-16T03:21:30.858Z,68.78
2019-03-16T03:23:57.449Z,68.91
2019-03-16T03:26:24.409Z,68.32
2019-03-16T03:28:51.005Z,68.91
2019-03-16T03:31:17.679Z,69.01
2019-03-16T03:33:58.633Z,69.53
2019-03-16T03:36:12.753Z,69.75
2019-03-16T03:38:39.471Z,69.71
2019-03-16T03:41:06.355Z,69.77
2019-03-16T03:43:33.155Z,69.44
2019-03-16T03:45:59.888Z,69.02
2019-03-16T03:48:26.699Z,69.29
2019-03-16T03:50:53.484Z,69.62
2019-03-16T03:53:20.187Z,70.04
2019-03-16T03:55:46.959Z,69.64
2019-03-16T03:58:13.770Z,69.82
2019-03-16T04:00:40.652Z,69.99
2019-03-16T04:03:07.762Z,69.41
2019-03-16T04:05:34.460Z,69.57
2019-03-16T04:08:01.257Z,69.31
2019-03-16T04:10:27.935Z,69.32
2019-03-16T04:12:54.652Z,69.97
2019-03-16T04:15:21.434Z,69.85
2019-03-16T04:17:48.244Z,69.71
2019-03-16T04:20:15.441Z,70.09
2019-03-16T04:22:42.103Z,70.18
2019-03-16T04:25:08.929Z,70.45
2019-03-16T04:27:35.732Z,70.07
2019-03-16T04:30:02.775Z,70.25
2019-03-16T04:32:30.056Z,70.27
2019-03-16T04:34:56.767Z,70.39
2019-03-16T04:37:23.349Z,70.60
2019-03-16T04:39:49.957Z,70.05
2019-03-16T04:42:16.749Z,70.42
2019-03-16T04:44:43.439Z,69.96
2019-03-16T04:47:10.147Z,70.30
2019-03-16T04:49:36.780Z,70.53
2019-03-16T04:52:03.555Z,70.23
2019-03-16T04:54:30.364Z,70.06
2019-03-16T04:56:57.303Z,70.56
2019-03-16T04:59:23.924Z,70.05
2019-03-16T05:01:50.678Z,70.45
2019-03-16T05:04:17.239Z,70.53
2019-03-16T05:06:44.029Z,70.67
2019-03-16T05:09:10.634Z,70.88
2019-03-16T05:11:37.417Z,70.67
2019-03-16T05:14:04.231Z,71.11
2019-03-16T05:16:31.332Z,71.03
2019-03-16T05:18:57.939Z,71.53
2019-03-16T05:21:24.532Z,71.67
2019-03-16T05:23:51.371Z,70.00
2019-03-16T05:26:18.106Z,68.65
2019-03-16T05:28:44.892Z,69.00
2019-03-16T05:31:11.598Z,69.43
2019-03-16T05:33:38.381Z,69.88
2019-03-16T05:36:05.100Z,71.13
2019-03-16T05:38:32.095Z,72.13
2019-03-16T05:40:58.795Z,71.71
2019-03-16T05:43:25.387Z,71.33
2019-03-16T05:45:51.998Z,71.14
2019-03-16T05:48:18.981Z,71.29
2019-03-16T05:50:45.788Z,72.16
2019-03-16T05:53:12.478Z,72.32
2019-03-16T05:55:39.209Z,73.64
2019-03-16T05:58:06.013Z,75.21
2019-03-16T06:00:32.811Z,76.76
2019-03-16T06:02:59.465Z,77.88
2019-03-16T06:05:26.205Z,77.88
2019-03-16T06:07:52.791Z,80.00
2019-03-16T06:10:19.610Z,78.96
2019-03-16T06:12:46.768Z,80.79
2019-03-16T06:15:14.057Z,80.83
2019-03-16T06:17:40.949Z,81.66
2019-03-16T06:20:08.529Z,81.81
2019-03-16T06:22:35.203Z,81.99
2019-03-16T06:25:01.873Z,81.65
2019-03-16T06:27:28.918Z,82.77
2019-03-16T06:29:56.088Z,82.80
2019-03-16T06:32:22.769Z,83.56
2019-03-16T06:34:49.373Z,84.08
2019-03-16T06:37:15.972Z,83.86
2019-03-16T06:39:42.737Z,84.35
2019-03-16T06:42:09.591Z,83.18
2019-03-16T06:44:36.451Z,84.00
2019-03-16T06:47:03.249Z,84.40
2019-03-16T06:49:30.068Z,84.92
2019-03-16T06:51:56.899Z,84.20
2019-03-16T06:54:23.623Z,84.09
2019-03-16T06:56:50.494Z,83.97
2019-03-16T06:59:17.972Z,84.52
2019-03-16T07:01:44.593Z,85.15
2019-03-16T07:04:11.785Z,84.43
2019-03-16T07:06:38.487Z,84.30
2019-03-16T07:09:06.987Z,85.34
2019-03-16T07:11:33.742Z,85.31
2019-03-16T07:14:00.428Z,85.22
2019-03-16T07:16:27.240Z,85.57
2019-03-16T07:18:58.682Z,85.52
2019-03-16T07:21:22.756Z,85.52
2019-03-16T07:23:49.435Z,86.42
2019-03-16T07:26:16.368Z,86.58
2019-03-16T07:28:43.192Z,86.26
2019-03-16T07:31:09.810Z,86.08
2019-03-16T07:33:36.641Z,86.49
2019-03-16T07:36:03.887Z,86.29
2019-03-16T07:38:30.674Z,85.73
2019-03-16T07:40:57.608Z,85.99
2019-03-16T07:43:24.396Z,86.18
2019-03-16T07:45:51.113Z,86.24
2019-03-16T07:48:17.717Z,85.61
2019-03-16T07:50:44.443Z,85.21
2019-03-16T07:53:11.150Z,85.61
2019-03-16T07:55:37.876Z,86.14
2019-03-16T07:58:04.491Z,86.17
2019-03-16T08:00:31.277Z,86.50
2019-03-16T08:02:57.971Z,86.53
2019-03-16T08:05:24.631Z,86.46
2019-03-16T08:07:51.457Z,86.46
2019-03-16T08:10:18.135Z,86.71
2019-03-16T08:12:44.865Z,86.61
2019-03-16T08:15:11.663Z,85.73
2019-03-16T08:17:38.569Z,85.73
2019-03-16T08:20:05.395Z,85.96
2019-03-16T08:22:32.001Z,86.19
2019-03-16T08:24:58.682Z,85.86
2019-03-16T08:27:25.382Z,85.46
2019-03-16T08:29:52.159Z,85.55
2019-03-16T08:32:18.972Z,84.28
2019-03-16T08:34:45.668Z,84.35
2019-03-16T08:37:12.273Z,84.81
2019-03-16T08:39:38.954Z,84.99
2019-03-16T08:42:05.762Z,84.28
2019-03-16T08:44:32.475Z,84.42
2019-03-16T08:46:59.539Z,84.17
2019-03-16T08:49:26.217Z,83.15
2019-03-16T08:51:52.920Z,82.71
2019-03-16T08:54:19.553Z,82.68
2019-03-16T08:56:46.234Z,83.96
2019-03-16T08:59:12.833Z,83.96
2019-03-16T09:01:40.863Z,83.38
2019-03-16T09:04:07.538Z,83.84
2019-03-16T09:06:34.172Z,83.85
2019-03-16T09:09:00.770Z,83.87
2019-03-16T09:11:27.489Z,84.26
2019-03-16T09:13:54.079Z,84.80
2019-03-16T09:16:20.756Z,84.92
2019-03-16T09:18:47.562Z,85.41
2019-03-16T09:21:14.365Z,85.32
2019-03-16T09:23:41.556Z,84.83
2019-03-16T09:26:08.743Z,85.55
2019-03-16T09:28:35.361Z,85.84
2019-03-16T09:31:02.778Z,86.04
2019-03-16T09:33:29.796Z,86.26
2019-03-16T09:35:56.482Z,86.35
2019-03-16T09:38:23.292Z,86.40
2019-03-16T09:40:50.069Z,86.65
2019-03-16T09:43:16.797Z,86.55
2019-03-16T09:45:43.501Z,86.83
2019-03-16T09:48:10.198Z,87.35
2019-03-16T09:50:37.016Z,87.89
2019-03-16T09:53:03.804Z,87.55
2019-03-16T09:55:30.608Z,87.67
2019-03-16T09:57:57.413Z,87.64
2019-03-16T10:00:24.204Z,87.58
2019-03-16T10:02:50.904Z,87.56
2019-03-16T10:05:17.670Z,87.64
2019-03-16T10:07:44.401Z,87.95
2019-03-16T10:10:11.237Z,88.33
2019-03-16T10:12:38.026Z,88.35
2019-03-16T10:15:05.306Z,88.34
2019-03-16T10:17:32.682Z,88.08
2019-03-16T10:19:59.460Z,87.93
2019-03-16T10:22:26.184Z,88.19
2019-03-16T10:24:52.992Z,88.26
2019-03-16T10:27:19.590Z,88.67
2019-03-16T10:29:46.180Z,88.96
2019-03-16T10:32:13.240Z,89.12
2019-03-16T10:34:40.097Z,89.24
2019-03-16T10:37:06.880Z,89.33
2019-03-16T10:39:33.883Z,89.32
2019-03-16T10:42:00.568Z,89.54
2019-03-16T10:44:27.282Z,89.66
2019-03-16T10:46:53.849Z,89.85
2019-03-16T10:49:20.441Z,89.90
2019-03-16T10:51:47.208Z,89.80
2019-03-16T10:54:13.828Z,89.82
2019-03-16T10:56:40.509Z,89.69
2019-03-16T10:59:07.110Z,89.64
2019-03-16T11:01:33.788Z,89.50
2019-03-16T11:04:00.358Z,89.37
2019-03-16T11:06:27.614Z,89.04
2019-03-16T11:08:54.214Z,88.94
2019-03-16T11:11:21.003Z,88.27
2019-03-16T11:13:47.796Z,87.79
2019-03-16T11:16:14.555Z,87.59
2019-03-16T11:18:41.339Z,87.34
2019-03-16T11:21:07.951Z,87.00
2019-03-16T11:23:34.523Z,87.00
2019-03-16T11:26:01.202Z,86.84
2019-03-16T11:28:28.354Z,86.44
2019-03-16T11:30:55.143Z,86.62
2019-03-16T11:33:22.652Z,86.12
2019-03-16T11:35:49.777Z,85.05
2019-03-16T11:38:16.623Z,85.57
2019-03-16T11:40:46.492Z,85.11
2019-03-16T11:43:13.198Z,84.28
2019-03-16T11:45:40.340Z,84.87
2019-03-16T11:48:07.071Z,85.28
2019-03-16T11:50:34.068Z,84.43
2019-03-16T11:53:00.670Z,84.74
2019-03-16T11:55:27.366Z,84.34
2019-03-16T11:57:54.439Z,84.90
2019-03-16T12:00:21.239Z,84.70
2019-03-16T12:02:52.951Z,85.26
2019-03-16T12:05:22.922Z,84.63
2019-03-16T12:07:49.722Z,85.31
2019-03-16T12:10:16.582Z,85.79
2019-03-16T12:12:43.363Z,86.43
2019-03-16T12:15:10.186Z,86.29
2019-03-16T12:17:36.948Z,86.42
2019-03-16T12:20:05.390Z,86.95
2019-03-16T12:22:32.189Z,86.27
2019-03-16T12:25:00.390Z,86.72
2019-03-16T12:27:27.410Z,86.78
2019-03-16T12:29:55.766Z,86.62
2019-03-16T12:32:22.888Z,86.86
2019-03-16T12:34:49.701Z,86.08
2019-03-16T12:37:16.381Z,86.01
2019-03-16T12:39:44.849Z,85.41
2019-03-16T12:42:11.551Z,85.47
2019-03-16T12:44:38.356Z,83.73
2019-03-16T12:47:07.243Z,84.09
2019-03-16T12:49:33.951Z,84.19
2019-03-16T12:52:00.644Z,84.43
2019-03-16T12:54:27.647Z,83.78
2019-03-16T12:56:54.331Z,82.26
2019-03-16T12:59:21.009Z,81.61
2019-03-16T13:01:47.688Z,82.38
2019-03-16T13:04:14.271Z,81.34
2019-03-16T13:06:41.055Z,81.43
2019-03-16T13:09:07.849Z,82.31
2019-03-16T13:11:34.542Z,81.62
2019-03-16T13:14:01.253Z,81.66
2019-03-16T13:16:27.928Z,80.20
2019-03-16T13:18:54.603Z,79.97
2019-03-16T13:21:21.190Z,80.16
2019-03-16T13:23:47.771Z,80.30
2019-03-16T13:26:14.439Z,79.05
2019-03-16T13:28:41.023Z,79.89
2019-03-16T13:31:07.827Z,79.46
2019-03-16T13:33:34.412Z,79.00
2019-03-16T13:36:01.105Z,79.27
2019-03-16T13:38:27.783Z,79.14
2019-03-16T13:40:54.586Z,77.96
2019-03-16T13:43:21.402Z,78.46
2019-03-16T13:45:48.255Z,77.30
2019-03-16T13:48:15.037Z,77.62
2019-03-16T13:50:41.744Z,76.73
2019-03-16T13:53:08.874Z,76.89
2019-03-16T13:55:35.597Z,75.80
2019-03-16T13:58:02.377Z,76.45
2019-03-16T14:00:29.178Z,76.44
2019-03-16T14:02:56.246Z,76.82
2019-03-16T14:05:23.046Z,76.41
2019-03-16T14:07:49.722Z,75.96
2019-03-16T14:10:16.717Z,76.14
2019-03-16T14:12:43.404Z,76.24
2019-03-16T14:15:10.182Z,75.43
2019-03-16T14:17:37.208Z,76.39
2019-03-16T14:20:05.251Z,77.23
2019-03-16T14:22:31.820Z,77.14
2019-03-16T14:24:58.520Z,76.95
2019-03-16T14:27:25.095Z,76.68
2019-03-16T14:29:51.795Z,77.44
2019-03-16T14:32:18.824Z,76.62
2019-03-16T14:34:46.206Z,75.21
2019-03-16T14:37:12.990Z,74.10
2019-03-16T14:39:39.792Z,73.69
2019-03-16T14:42:07.754Z,73.74
2019-03-16T14:44:34.386Z,74.26
2019-03-16T14:47:00.973Z,74.47
2019-03-16T14:49:27.638Z,73.87
2019-03-16T14:51:54.434Z,73.76
2019-03-16T14:54:21.039Z,73.95
2019-03-16T14:56:47.636Z,73.93
2019-03-16T14:59:14.332Z,74.13
2019-03-16T15:01:40.948Z,74.34
2019-03-16T15:04:07.616Z,75.01
2019-03-16T15:06:34.319Z,74.24
2019-03-16T15:09:01.382Z,73.77
2019-03-16T15:11:28.088Z,74.08
2019-03-16T15:13:54.667Z,74.11
2019-03-16T15:16:21.815Z,74.31
2019-03-16T15:18:48.512Z,74.35
2019-03-16T15:21:15.273Z,74.31
2019-03-16T15:23:41.974Z,74.71
2019-03-16T15:26:08.792Z,74.23
2019-03-16T15:28:35.577Z,74.14
2019-03-16T15:31:02.364Z,74.79
2019-03-16T15:33:29.146Z,74.28
2019-03-16T15:35:55.742Z,73.79
2019-03-16T15:38:22.422Z,73.16
2019-03-16T15:40:49.118Z,72.98
2019-03-16T15:43:15.887Z,72.54
2019-03-16T15:45:42.585Z,71.77
2019-03-16T15:48:09.254Z,71.89
2019-03-16T15:50:36.397Z,71.03
2019-03-16T15:53:03.551Z,70.91
2019-03-16T15:55:30.263Z,70.89
2019-03-16T15:58:07.539Z,70.88
2019-03-16T16:00:26.470Z,70.68
2019-03-16T16:02:53.240Z,70.77
2019-03-16T16:05:20.064Z,69.54
2019-03-16T16:07:46.731Z,70.48
2019-03-16T16:10:13.545Z,70.73
2019-03-16T16:12:40.232Z,70.09
2019-03-16T16:15:07.037Z,69.82
2019-03-16T16:17:33.953Z,69.74
2019-03-16T16:20:00.541Z,69.77
2019-03-16T16:22:27.239Z,69.79
2019-03-16T16:24:53.947Z,69.96
2019-03-16T16:27:22.919Z,69.92
2019-03-16T16:29:51.089Z,69.76
2019-03-16T16:32:18.278Z,69.93
2019-03-16T16:34:45.088Z,70.19
2019-03-16T16:37:11.747Z,69.97
2019-03-16T16:39:38.570Z,70.74
2019-03-16T16:42:05.361Z,70.12
2019-03-16T16:44:33.259Z,70.12
2019-03-16T16:47:00.020Z,69.63
2019-03-16T16:49:26.597Z,69.60
2019-03-16T16:51:53.391Z,69.75
2019-03-16T16:54:19.988Z,70.04
2019-03-16T16:56:47.184Z,70.35
2019-03-16T16:59:13.755Z,70.43
2019-03-16T17:01:40.552Z,69.47
2019-03-16T17:04:07.231Z,69.68
2019-03-16T17:06:33.917Z,68.98
2019-03-16T17:09:00.586Z,68.88
2019-03-16T17:11:27.280Z,68.61
2019-03-16T17:13:53.950Z,69.01
2019-03-16T17:16:20.846Z,68.91
2019-03-16T17:18:47.527Z,68.93
2019-03-16T17:21:14.103Z,68.61
2019-03-16T17:23:40.798Z,68.72
2019-03-16T17:26:07.472Z,68.36
2019-03-16T17:28:34.261Z,68.38
2019-03-16T17:31:03.230Z,68.40
2019-03-16T17:33:29.930Z,68.53
2019-03-16T17:35:56.507Z,68.70
2019-03-16T17:38:23.456Z,68.41
2019-03-16T17:40:50.134Z,68.33
2019-03-16T17:43:16.969Z,68.69
2019-03-16T17:45:43.777Z,67.30
2019-03-16T17:48:10.467Z,67.08
2019-03-16T17:50:37.504Z,67.25
2019-03-16T17:53:04.304Z,67.27
2019-03-16T17:55:31.014Z,66.53
2019-03-16T17:57:57.693Z,66.58
2019-03-16T18:00:24.472Z,66.17
2019-03-16T18:02:52.493Z,66.17
2019-03-16T18:05:19.748Z,66.40
2019-03-16T18:07:46.430Z,66.49
2019-03-16T18:10:13.213Z,65.87
2019-03-16T18:12:40.090Z,65.51
2019-03-16T18:15:08.213Z,65.50
2019-03-16T18:17:34.916Z,65.92
2019-03-16T18:20:01.684Z,66.13
2019-03-16T18:22:29.049Z,65.97
2019-03-16T18:24:55.613Z,65.84
2019-03-16T18:27:22.402Z,66.09
2019-03-16T18:29:48.962Z,66.51
2019-03-16T18:32:15.655Z,66.42
2019-03-16T18:34:42.333Z,67.11
2019-03-16T18:37:09.107Z,66.88
2019-03-16T18:39:35.695Z,66.40
2019-03-16T18:42:02.399Z,66.70
2019-03-16T18:44:29.079Z,66.87
2019-03-16T18:46:55.746Z,66.84
2019-03-16T18:49:22.465Z,66.83
2019-03-16T18:51:49.148Z,66.32
2019-03-16T18:54:15.871Z,66.78
2019-03-16T18:56:42.675Z,66.25
2019-03-16T18:59:09.438Z,66.36
2019-03-16T19:01:36.057Z,66.16
2019-03-16T19:04:03.011Z,66.08
2019-03-16T19:06:29.681Z,66.28
2019-03-16T19:08:56.285Z,65.58
2019-03-16T19:11:23.624Z,65.51
2019-03-16T19:13:50.332Z,65.48
2019-03-16T19:16:17.112Z,65.81
2019-03-16T19:18:43.719Z,65.39
2019-03-16T19:21:10.301Z,65.22
2019-03-16T19:23:36.993Z,64.86
2019-03-16T19:26:03.779Z,65.34
2019-03-16T19:28:30.501Z,64.74
2019-03-16T19:30:57.187Z,64.69
2019-03-16T19:33:23.897Z,64.76
2019-03-16T19:35:50.577Z,64.69
2019-03-16T19:38:17.380Z,64.80
2019-03-16T19:40:44.082Z,64.74
2019-03-16T19:43:10.784Z,64.51
2019-03-16T19:45:37.481Z,65.02
2019-03-16T19:48:04.274Z,65.10
2019-03-16T19:50:30.953Z,65.15
2019-03-16T19:52:57.622Z,64.70
2019-03-16T19:55:24.441Z,64.73
2019-03-16T19:57:51.114Z,64.70
2019-03-16T20:00:18.244Z,64.85
2019-03-16T20:02:51.077Z,64.82
2019-03-16T20:05:16.474Z,64.94
2019-03-16T20:07:43.680Z,65.43
2019-03-16T20:10:11.594Z,65.36
2019-03-16T20:12:38.755Z,64.17
2019-03-16T20:15:05.512Z,64.45
2019-03-16T20:17:32.327Z,64.22
2019-03-16T20:19:59.130Z,64.59
2019-03-16T20:22:25.938Z,64.02
2019-03-16T20:24:52.636Z,64.28
2019-03-16T20:27:19.327Z,64.31
2019-03-16T20:29:46.054Z,64.54
2019-03-16T20:32:12.649Z,64.58
2019-03-16T20:34:39.367Z,64.59
2019-03-16T20:37:06.145Z,64.35
2019-03-16T20:39:32.831Z,64.56
2019-03-16T20:41:59.609Z,64.38
2019-03-16T20:44:26.404Z,64.62
2019-03-16T20:46:52.962Z,64.61
2019-03-16T20:49:20.074Z,64.03
2019-03-16T20:51:46.782Z,64.29
2019-03-16T20:54:13.604Z,64.35
2019-03-16T20:56:40.684Z,64.15
2019-03-16T20:59:07.480Z,64.08
2019-03-16T21:01:34.113Z,63.87
2019-03-16T21:04:00.964Z,64.38
2019-03-16T21:06:27.766Z,64.32
2019-03-16T21:09:03.115Z,63.80
2019-03-16T21:11:23.133Z,64.10
2019-03-16T21:13:49.707Z,64.16
2019-03-16T21:16:16.415Z,64.40
2019-03-16T21:18:43.094Z,64.48
2019-03-16T21:21:10.150Z,64.58
2019-03-16T21:23:36.946Z,64.01
2019-03-16T21:26:03.867Z,64.42
2019-03-16T21:28:30.536Z,64.16
2019-03-16T21:30:57.227Z,64.06
2019-03-16T21:33:29.632Z,64.46
2019-03-16T21:35:52.608Z,64.19
2019-03-16T21:38:19.561Z,64.02
2019-03-16T21:40:46.664Z,64.05
2019-03-16T21:43:13.455Z,63.77
2019-03-16T21:45:40.136Z,64.15
2019-03-16T21:48:06.924Z,64.64
2019-03-16T21:50:33.730Z,64.21
2019-03-16T21:53:00.506Z,64.14
2019-03-16T21:55:27.117Z,63.50
2019-03-16T21:57:53.699Z,63.70
2019-03-16T22:00:20.782Z,63.31
2019-03-16T22:02:47.359Z,63.39
2019-03-16T22:05:14.174Z,63.87
2019-03-16T22:07:40.970Z,64.04
2019-03-16T22:10:07.907Z,63.59
2019-03-16T22:12:34.695Z,63.50
2019-03-16T22:15:01.502Z,63.51
2019-03-16T22:17:28.311Z,63.50
2019-03-16T22:19:55.094Z,63.53
2019-03-16T22:22:21.804Z,63.85
2019-03-16T22:24:48.508Z,63.83
2019-03-16T22:27:15.190Z,64.15
2019-03-16T22:29:42.172Z,64.04
2019-03-16T22:32:09.260Z,62.96
2019-03-16T22:34:36.038Z,63.53
2019-03-16T22:37:02.740Z,63.20
2019-03-16T22:39:29.785Z,63.53
2019-03-16T22:41:56.472Z,63.16
2019-03-16T22:44:23.449Z,63.31
2019-03-16T22:46:50.250Z,63.23
2019-03-16T22:49:16.920Z,63.33
2019-03-16T22:51:43.703Z,63.55
2019-03-16T22:54:10.517Z,63.44
2019-03-16T22:56:37.211Z,63.38
2019-03-16T22:59:04.001Z,62.95
2019-03-16T23:01:30.788Z,63.24
2019-03-16T23:04:06.301Z,63.36
2019-03-16T23:06:26.071Z,63.07
2019-03-16T23:08:52.901Z,63.66
2019-03-16T23:11:20.632Z,63.53
2019-03-16T23:13:47.395Z,64.05
2019-03-16T23:16:14.115Z,64.13
2019-03-16T23:18:40.899Z,63.95
2019-03-16T23:21:07.701Z,63.46
2019-03-16T23:23:34.471Z,63.41
2019-03-16T23:26:01.391Z,63.20
2019-03-16T23:28:28.095Z,63.56
2019-03-16T23:30:54.801Z,63.14
2019-03-16T23:33:21.589Z,63.55
2019-03-16T23:35:48.417Z,62.95
2019-03-16T23:38:15.089Z,63.35
2019-03-16T23:40:42.173Z,63.51
2019-03-16T23:43:08.959Z,63.47
2019-03-16T23:45:35.734Z,63.28
2019-03-16T23:48:02.540Z,63.33
2019-03-16T23:50:29.225Z,63.24
2019-03-16T23:52:55.921Z,63.34
2019-03-16T23:55:22.715Z,63.71
2019-03-16T23:57:49.550Z,63.70
